Terminal Aerodrome Forecast
Issued by NWS

Home | Current Version | Previous Version | Text Only | Print | Product List | Glossary On
Versions: 1 2 3 4 5 6 7 8 9 10 11 12 13 14 15 16 17 18 19 20 21 22 23
391
FTUS44 KLZK 301458 AAC
TAFLIT
TAF AMD
KLIT 301458Z 3015/0112 21010G18KT P6SM SCT010 OVC100 WS020/17045KT
      TEMPO 3015/3017 BKN010
     FM301900 23016G26KT P6SM OVC050
     FM010000 22014G24KT P6SM OVC100
     FM010600 24009KT P6SM BKN150=

USA.gov is the U.S. government's official web portal to all federal, state and local government web resources and services.